Flight Track Log - Related Links

Times and Time Zones

All times are in EDT time to prevent confusion due to time zone crossing. See the SKW6290 flight status page for this flight to view local times or setup timezone preferences in your user account.

Time Position Orientation Groundspeed Altitude Reporting Facility
EDT Latitude Longitude Course Direction KTS MPH feet Rate Location/Type
Mon 06:41:21 PM 37.6333 -122.3667 122° Southeast 165 190 1,100  Level Northern Cal TRACON
Mon 06:42:22 PM 37.6833 -122.3833 345° North 208 239 3,300 2,077 Climbing Northern Cal TRACON
Mon 06:43:05 PM 37.6706 -122.4214 247° West 216 249 4,700 2,192 Climbing Oakland Center
Mon 06:44:00 PM 37.3044 -121.8475 133° Southeast  Level Estimated
Mon 06:44:06 PM 37.5917 -122.4364 189° South 250 288 7,100  Level Oakland Center
Mon 06:45:00 PM 37.2254 -121.7162 122° Southeast  Level Estimated
Mon 06:45:07 PM 37.5158 -122.4053 162° South 286 329 9,500  Level Oakland Center
Mon 06:46:00 PM 37.1462 -121.5853 122° Southeast  Level Estimated
Mon 06:46:08 PM 37.4486 -122.3494 147° Southeast 290 334 11,400  Level Oakland Center
Mon 06:47:10 PM 37.3953 -122.2575 126° Southeast 325 374 12,800 1,561 Climbing Oakland Center
Mon 06:48:11 PM 37.3378 -122.1639 128° Southeast 339 390 14,600 1,967 Climbing Oakland Center
Mon 06:49:12 PM 37.2811 -122.0722 128° Southeast 335 386 16,800 1,854 Climbing Oakland Center
Mon 06:50:14 PM 37.2242 -121.9822 128° Southeast 332 382 18,400 1,512 Climbing Oakland Center
Mon 06:51:15 PM 37.1642 -121.8858 128° Southeast 348 400 19,900 1,415 Climbing Oakland Center
Mon 06:52:17 PM 37.1025 -121.7872 128° Southeast 356 410 21,300 1,279 Climbing Oakland Center
Mon 06:53:17 PM 37.0408 -121.6917 129° Southeast 358 412 22,500 1,240 Climbing Oakland Center
Mon 06:54:18 PM 36.9647 -121.5733 129° Southeast 365 420 23,800 1,171 Climbing Oakland Center
Mon 06:55:20 PM 36.9000 -121.4700 128° Southeast 375 432 24,900 976 Climbing Oakland Center
Mon 06:56:21 PM 36.8356 -121.3639 127° Southeast 382 440 25,800 836 Climbing Oakland Center
Mon 06:57:22 PM 36.7681 -121.2617 129° Southeast 388 447 26,600 738 Climbing Oakland Center
Mon 06:58:23 PM 36.6986 -121.1536 129° Southeast 396 456 27,300 738 Climbing Oakland Center
Mon 06:59:24 PM 36.6292 -121.0419 128° Southeast 406 467 28,100 732 Climbing Oakland Center
Mon 07:00:26 PM 36.5564 -120.9325 130° Southeast 409 471 28,800 439 Climbing Oakland Center
Mon 07:01:27 PM 36.4828 -120.8164 128° Southeast 423 487 29,000 98 Climbing Oakland Center
Mon 07:02:28 PM 36.4083 -120.7006 129° Southeast 428 493 29,000  Level Oakland Center
Mon 07:03:29 PM 36.3172 -120.5617 129° Southeast 431 496 29,000  Level Oakland Center
Mon 07:04:30 PM 36.2428 -120.4461 129° Southeast 430 495 29,000  Level Oakland Center
Mon 07:05:32 PM 36.1667 -120.3297 129° Southeast 431 496 29,000  Level Oakland Center
Mon 07:06:33 PM 36.0911 -120.2144 129° Southeast 431 496 29,000  Level Oakland Center
Mon 07:07:34 PM 36.0156 -120.0986 129° Southeast 431 496 29,000  Level Oakland Center
Mon 07:08:35 PM 35.9394 -119.9839 129° Southeast 430 495 29,000  Level Oakland Center
Mon 07:09:44 PM 35.8469 -119.8444 129° Southeast 431 496 29,000  Level Los Angeles Center
Mon 07:10:46 PM 35.7706 -119.7306 130° Southeast 429 494 29,000  Level Los Angeles Center
Mon 07:11:48 PM 35.6950 -119.6158 129° Southeast 429 494 29,000  Level Los Angeles Center
Mon 07:12:40 PM 35.6328 -119.5236 130° Southeast 433 498 29,000  Level Oakland Center
Mon 07:13:42 PM 35.5564 -119.4097 129° Southeast 432 497 29,000  Level Oakland Center
Mon 07:14:43 PM 35.4797 -119.2950 129° Southeast 433 498 29,000  Level Oakland Center
Mon 07:15:44 PM 35.3872 -119.1586 130° Southeast 434 499 29,000  Level Oakland Center
Mon 07:16:45 PM 35.3103 -119.0461 130° Southeast 431 496 29,000  Level Oakland Center
Mon 07:17:46 PM 35.2331 -118.9331 130° Southeast 432 497 29,000  Level Oakland Center
Mon 07:18:48 PM 35.1569 -118.8203 130° Southeast 431 496 29,000  Level Oakland Center
Mon 07:19:49 PM 35.0806 -118.7069 129° Southeast 432 497 29,000 -639 Level Oakland Center
Mon 07:20:50 PM 35.0025 -118.5933 130° Southeast 434 499 27,700 -1,217 Descending Oakland Center
Mon 07:22:07 PM 34.9119 -118.4675 131° Southeast 422 486 26,200 -1,165 Descending Los Angeles Center
Mon 07:23:09 PM 34.8264 -118.3456 130° Southeast 401 461 25,000 -1,065 Descending Los Angeles Center
Mon 07:24:11 PM 34.7567 -118.2447 130° Southeast 394 453 24,000 -968 Descending Los Angeles Center
Mon 07:25:13 PM 34.6875 -118.1469 131° Southeast 387 445 23,000 -968 Descending Los Angeles Center
Mon 07:26:15 PM 34.6225 -118.0472 128° Southeast 382 440 22,000 -968 Descending Los Angeles Center
Mon 07:27:17 PM 34.5731 -117.9372 119° Southeast 374 430 21,000 -1,056 Descending Los Angeles Center
Mon 07:28:20 PM 34.5142 -117.8089 119° Southeast 366 421 19,800 -1,056 Descending Los Angeles Center
Mon 07:29:22 PM 34.4650 -117.7047 120° Southeast 360 414 18,800 -1,016 Descending Los Angeles Center
Mon 07:30:24 PM 34.4189 -117.6031 119° Southeast 349 402 17,700 -871 Descending Los Angeles Center
Mon 07:31:26 PM 34.3661 -117.4886 119° Southeast 340 391 17,000 -339 Descending Los Angeles Center
Mon 07:32:28 PM 34.3217 -117.3911 119° Southeast 331 381 17,000  Level Los Angeles Center
Mon 07:33:30 PM 34.2767 -117.2939 119° Southeast 331 381 17,000  Level Los Angeles Center
Mon 07:34:32 PM 34.2300 -117.1947 120° Southeast 335 386 17,000  Level Los Angeles Center
Mon 07:35:34 PM 34.1806 -117.0908 120° Southeast 343 395 17,000  Level Los Angeles Center
Mon 07:36:36 PM 34.1331 -116.9883 119° Southeast 349 402 17,000 -145 Level Los Angeles Center
Mon 07:37:38 PM 34.0892 -116.8906 118° Southeast 338 389 16,700 -1,258 Descending Los Angeles Center
Mon 07:38:40 PM 34.0344 -116.7742 120° Southeast 334 384 14,400 -1,984 Descending Los Angeles Center
Mon 07:39:42 PM 33.9967 -116.6808 116° Southeast 315 362 12,600 -1,694 Descending Los Angeles Center
Mon 07:40:44 PM 33.9697 -116.5931 110° East 289 333 10,900 -2,032 Descending Los Angeles Center
Mon 07:41:46 PM 33.9453 -116.5242 113° Southeast 233 268 8,400 -1,536 Descending Los Angeles Center
Mon 07:42:49 PM 33.9122 -116.4606 122° Southeast 230 265 7,700 -2,071 Descending Los Angeles Center
Mon 07:45:03 PM 33.8000 -116.4333 169° South 170 196 1,600 -2,103 Descending Southern California TRACON
Mon 07:46:03 PM 33.8000 -116.4833 270° West 170 196 900 -700 Descending Southern California TRACON

Login

Don't have an account? Register now (free) for customized features, flight alerts, and more!